createdAt,value
2023-01-10T05:00:30.979Z,1007.13
2023-01-10T05:01:30.905Z,1007.10
2023-01-10T05:02:31.009Z,1007.13
2023-01-10T05:03:30.839Z,1007.07
2023-01-10T05:04:30.843Z,1007.21
2023-01-10T05:05:30.823Z,1007.24
2023-01-10T05:06:30.811Z,1007.18
2023-01-10T05:07:30.819Z,1007.20
2023-01-10T05:08:30.796Z,1007.15
2023-01-10T05:09:30.831Z,1007.14
2023-01-10T05:10:30.821Z,1007.16
2023-01-10T05:11:35.775Z,1007.18
2023-01-10T05:12:30.747Z,1007.16
2023-01-10T05:13:30.736Z,1007.14
2023-01-10T05:14:30.734Z,1007.14
2023-01-10T05:15:30.709Z,1007.23
2023-01-10T05:16:30.768Z,1007.24
2023-01-10T05:17:30.683Z,1007.28
2023-01-10T05:18:30.674Z,1007.25
2023-01-10T05:19:30.675Z,1007.30
2023-01-10T05:20:30.650Z,1007.29
2023-01-10T05:21:30.642Z,1007.25
2023-01-10T05:22:35.649Z,1007.28
2023-01-10T05:23:30.627Z,1007.31
2023-01-10T05:24:30.616Z,1007.19
2023-01-10T05:25:30.633Z,1007.27
2023-01-10T05:26:30.582Z,1007.28
2023-01-10T05:27:30.570Z,1007.29
2023-01-10T05:28:30.573Z,1007.28
2023-01-10T05:29:30.559Z,1007.27
2023-01-10T05:30:30.539Z,1007.28
2023-01-10T05:31:30.713Z,1007.28
2023-01-10T05:32:30.574Z,1007.31
2023-01-10T05:33:35.525Z,1007.38
2023-01-10T05:34:30.501Z,1007.31
2023-01-10T05:35:30.484Z,1007.41
2023-01-10T05:36:30.482Z,1007.38
2023-01-10T05:37:30.483Z,1007.39
2023-01-10T05:38:30.537Z,1007.43
2023-01-10T05:39:30.445Z,1007.46
2023-01-10T05:40:30.425Z,1007.47
2023-01-10T05:41:30.415Z,1007.46
2023-01-10T05:42:30.404Z,1007.48
2023-01-10T05:43:30.389Z,1007.55
2023-01-10T05:44:35.499Z,1007.58
2023-01-10T05:45:30.446Z,1007.53
2023-01-10T05:46:30.385Z,1007.54
2023-01-10T05:47:30.345Z,1007.56
2023-01-10T05:48:30.353Z,1007.62
2023-01-10T05:49:30.454Z,1007.67
2023-01-10T05:50:30.310Z,1007.67
2023-01-10T05:51:30.297Z,1007.67
2023-01-10T05:52:30.290Z,1007.65
2023-01-10T05:53:30.275Z,1007.64
2023-01-10T05:54:30.273Z,1007.70
2023-01-10T05:55:35.288Z,1007.68
2023-01-10T05:56:30.260Z,1007.71
2023-01-10T05:57:30.231Z,1007.81
2023-01-10T05:58:30.251Z,1007.74
2023-01-10T05:59:30.225Z,1007.75
2023-01-10T06:00:30.243Z,1007.82
2023-01-10T06:01:30.334Z,1007.81
2023-01-10T06:02:30.312Z,1007.83
2023-01-10T06:03:30.161Z,1007.84
2023-01-10T06:04:30.191Z,1007.85
2023-01-10T06:05:30.146Z,1007.90
2023-01-10T06:06:35.158Z,1007.89
2023-01-10T06:07:30.119Z,1007.94
2023-01-10T06:08:30.112Z,1008.02
2023-01-10T06:09:30.105Z,1008.06
2023-01-10T06:10:31.081Z,1008.07
2023-01-10T06:11:30.186Z,1008.10
2023-01-10T06:12:30.055Z,1008.13
2023-01-10T06:13:30.048Z,1008.11
2023-01-10T06:14:30.049Z,1008.19
2023-01-10T06:15:30.038Z,1008.22
2023-01-10T06:16:30.040Z,1008.22
2023-01-10T06:17:35.026Z,1008.27
2023-01-10T06:18:29.992Z,1008.24
2023-01-10T06:19:29.984Z,1008.34
2023-01-10T06:20:30.029Z,1008.36
2023-01-10T06:21:29.962Z,1008.40
2023-01-10T06:22:29.956Z,1008.41
2023-01-10T06:23:29.944Z,1008.40
2023-01-10T06:24:30.919Z,1008.40
2023-01-10T06:25:29.923Z,1008.42
2023-01-10T06:26:29.902Z,1008.44
2023-01-10T06:27:29.912Z,1008.38
2023-01-10T06:28:34.899Z,1008.40
2023-01-10T06:29:29.872Z,1008.43
2023-01-10T06:30:29.860Z,1008.42
2023-01-10T06:31:30.951Z,1008.50
2023-01-10T06:32:29.834Z,1008.47
2023-01-10T06:33:29.821Z,1008.45
2023-01-10T06:34:29.813Z,1008.46
2023-01-10T06:35:29.818Z,1008.40
2023-01-10T06:36:29.986Z,1008.51
2023-01-10T06:37:29.818Z,1008.48
2023-01-10T06:38:29.761Z,1008.48
2023-01-10T06:39:34.811Z,1008.52
2023-01-10T06:40:29.737Z,1008.55
2023-01-10T06:41:29.736Z,1008.60
2023-01-10T06:42:29.719Z,1008.63
2023-01-10T06:43:29.708Z,1008.63
2023-01-10T06:44:29.721Z,1008.68
2023-01-10T06:45:29.752Z,1008.72
2023-01-10T06:46:29.678Z,1008.74
2023-01-10T06:47:29.674Z,1008.79
2023-01-10T06:48:29.652Z,1008.82
2023-01-10T06:49:29.637Z,1008.94
2023-01-10T06:50:34.655Z,1008.98
2023-01-10T06:51:30.620Z,1009.04
2023-01-10T06:52:29.625Z,1008.98
2023-01-10T06:53:29.595Z,1009.07
2023-01-10T06:54:29.594Z,1009.18
2023-01-10T06:55:29.589Z,1009.22
2023-01-10T06:56:29.572Z,1009.09
2023-01-10T06:57:29.548Z,1009.10
2023-01-10T06:58:29.540Z,1009.06
2023-01-10T06:59:29.525Z,1009.13
2023-01-10T07:00:29.628Z,1009.05
2023-01-10T07:01:34.636Z,1009.04
2023-01-10T07:02:29.500Z,1009.03
2023-01-10T07:03:29.499Z,1009.02
2023-01-10T07:04:29.478Z,1008.93
2023-01-10T07:05:29.474Z,1008.90
2023-01-10T07:06:29.461Z,1008.86
2023-01-10T07:07:29.442Z,1008.96
2023-01-10T07:08:29.752Z,1008.86
2023-01-10T07:09:29.415Z,1008.99
2023-01-10T07:10:29.550Z,1008.94
2023-01-10T07:11:29.393Z,1009.00
2023-01-10T07:12:34.405Z,1009.08
2023-01-10T07:13:29.441Z,1009.13
2023-01-10T07:14:29.367Z,1009.18
2023-01-10T07:15:29.613Z,1009.31
2023-01-10T07:16:29.379Z,1009.26
2023-01-10T07:17:29.322Z,1009.36
2023-01-10T07:18:29.337Z,1009.38
2023-01-10T07:19:29.299Z,1009.35
2023-01-10T07:20:29.317Z,1009.36
2023-01-10T07:21:29.276Z,1009.40
2023-01-10T07:22:29.263Z,1009.40
2023-01-10T07:23:34.303Z,1009.42
2023-01-10T07:24:29.237Z,1009.38
2023-01-10T07:25:29.409Z,1009.43
2023-01-10T07:26:29.219Z,1009.53
2023-01-10T07:27:29.208Z,1009.54
2023-01-10T07:28:29.200Z,1009.57
2023-01-10T07:29:29.195Z,1009.63
2023-01-10T07:30:29.245Z,1009.70
2023-01-10T07:31:29.218Z,1009.71
2023-01-10T07:32:29.198Z,1009.74
2023-01-10T07:33:29.144Z,1009.70
2023-01-10T07:34:34.182Z,1009.72
2023-01-10T07:35:29.258Z,1009.75
2023-01-10T07:36:29.139Z,1009.78
2023-01-10T07:37:30.037Z,1009.81
2023-01-10T07:38:29.128Z,1009.76
2023-01-10T07:39:29.096Z,1009.85
2023-01-10T07:40:29.070Z,1009.81
2023-01-10T07:41:29.051Z,1009.74
2023-01-10T07:42:29.038Z,1009.78
2023-01-10T07:43:29.026Z,1009.78
2023-01-10T07:44:29.012Z,1009.69
2023-01-10T07:45:34.042Z,1009.71
2023-01-10T07:46:29.034Z,1009.69
2023-01-10T07:47:29.035Z,1009.74
2023-01-10T07:48:28.966Z,1009.74
2023-01-10T07:49:28.973Z,1009.80
2023-01-10T07:50:28.958Z,1009.79
2023-01-10T07:51:28.933Z,1009.81
2023-01-10T07:52:28.932Z,1009.94
2023-01-10T07:53:28.919Z,1009.85
2023-01-10T07:54:28.898Z,1009.82
2023-01-10T07:55:29.030Z,1009.84
2023-01-10T07:56:33.915Z,1009.88
2023-01-10T07:57:28.864Z,1009.91
2023-01-10T07:58:28.873Z,1009.94
2023-01-10T07:59:28.847Z,1009.98
2023-01-10T08:00:28.842Z,1009.96
2023-01-10T08:01:28.864Z,1009.98
2023-01-10T08:02:28.874Z,1010.01
2023-01-10T08:03:28.919Z,1010.00
2023-01-10T08:04:28.782Z,1010.01
2023-01-10T08:05:28.889Z,1010.09
2023-01-10T08:06:28.801Z,1010.14
2023-01-10T08:07:33.787Z,1010.17
2023-01-10T08:08:28.746Z,1010.19
2023-01-10T08:09:28.742Z,1010.23
2023-01-10T08:10:28.753Z,1010.15
2023-01-10T08:11:29.728Z,1010.08
2023-01-10T08:12:28.692Z,1010.15
2023-01-10T08:13:28.681Z,1010.16
2023-01-10T08:14:28.712Z,1010.17
2023-01-10T08:15:28.679Z,1010.22
2023-01-10T08:16:28.652Z,1010.20
2023-01-10T08:17:28.657Z,1010.14
2023-01-10T08:18:33.667Z,1010.11
2023-01-10T08:19:28.621Z,1010.18
2023-01-10T08:20:31.012Z,1010.20
2023-01-10T08:21:28.591Z,1010.12
2023-01-10T08:22:28.589Z,1010.21
2023-01-10T08:23:28.574Z,1010.24
2023-01-10T08:24:28.574Z,1010.34
2023-01-10T08:25:28.579Z,1010.37
2023-01-10T08:26:28.548Z,1010.36
2023-01-10T08:27:28.565Z,1010.34
2023-01-10T08:28:28.518Z,1010.31
2023-01-10T08:29:33.566Z,1010.45
2023-01-10T08:30:28.489Z,1010.38
2023-01-10T08:31:28.540Z,1010.35
2023-01-10T08:32:28.492Z,1010.35
2023-01-10T08:33:29.460Z,1010.35
2023-01-10T08:34:28.444Z,1010.33
2023-01-10T08:35:28.465Z,1010.39
2023-01-10T08:36:28.443Z,1010.37
2023-01-10T08:37:28.417Z,1010.39
2023-01-10T08:38:28.405Z,1010.34
2023-01-10T08:39:28.653Z,1010.35
2023-01-10T08:40:33.405Z,1010.33
2023-01-10T08:41:28.482Z,1010.35
2023-01-10T08:42:28.355Z,1010.34
2023-01-10T08:43:28.365Z,1010.36
2023-01-10T08:44:28.336Z,1010.36
2023-01-10T08:45:28.331Z,1010.41
2023-01-10T08:46:28.648Z,1010.39
2023-01-10T08:47:28.301Z,1010.34
2023-01-10T08:48:28.299Z,1010.37
2023-01-10T08:49:28.306Z,1010.40
2023-01-10T08:50:28.275Z,1010.44
2023-01-10T08:51:33.338Z,1010.46
2023-01-10T08:52:28.236Z,1010.43
2023-01-10T08:53:28.627Z,1010.43
2023-01-10T08:54:28.225Z,1010.40
2023-01-10T08:55:28.301Z,1010.43
2023-01-10T08:56:28.208Z,1010.50
2023-01-10T08:57:28.197Z,1010.47
2023-01-10T08:58:28.180Z,1010.54
2023-01-10T08:59:28.205Z,1010.50
2023-01-10T09:00:28.154Z,1010.52
2023-01-10T09:01:28.294Z,1010.55
2023-01-10T09:02:33.246Z,1010.54
2023-01-10T09:03:28.116Z,1010.48
2023-01-10T09:04:28.106Z,1010.48
2023-01-10T09:05:28.598Z,1010.47
2023-01-10T09:06:28.092Z,1010.51
2023-01-10T09:07:28.069Z,1010.57
2023-01-10T09:08:29.054Z,1010.60
2023-01-10T09:09:28.048Z,1010.49
2023-01-10T09:10:28.043Z,1010.51
2023-01-10T09:11:28.044Z,1010.48
2023-01-10T09:12:28.013Z,1010.47
2023-01-10T09:13:33.057Z,1010.49
2023-01-10T09:14:27.995Z,1010.49
2023-01-10T09:15:28.018Z,1010.43
2023-01-10T09:16:28.080Z,1010.50
2023-01-10T09:17:27.984Z,1010.56
2023-01-10T09:18:28.027Z,1010.55
2023-01-10T09:19:27.938Z,1010.62
2023-01-10T09:20:27.984Z,1010.65
2023-01-10T09:21:27.938Z,1010.61
2023-01-10T09:22:27.916Z,1010.64
2023-01-10T09:23:27.888Z,1010.67
2023-01-10T09:24:32.896Z,1010.67
2023-01-10T09:25:27.879Z,1010.72
2023-01-10T09:26:28.047Z,1010.72
2023-01-10T09:27:27.873Z,1010.80
2023-01-10T09:28:27.836Z,1010.79
2023-01-10T09:29:27.868Z,1010.76
2023-01-10T09:30:27.844Z,1010.83
2023-01-10T09:31:27.933Z,1010.90
2023-01-10T09:32:27.798Z,1010.87
2023-01-10T09:33:34.980Z,1010.88
2023-01-10T09:34:28.813Z,1010.91
2023-01-10T09:35:32.846Z,1010.88
2023-01-10T09:36:27.749Z,1010.91
2023-01-10T09:37:27.741Z,1010.95
2023-01-10T09:38:27.855Z,1010.98
2023-01-10T09:39:27.795Z,1011.00
2023-01-10T09:40:27.703Z,1011.02
2023-01-10T09:41:27.704Z,1011.06
2023-01-10T09:42:27.696Z,1011.06
2023-01-10T09:43:27.691Z,1011.03
2023-01-10T09:44:27.673Z,1011.03
2023-01-10T09:45:27.645Z,1010.98
2023-01-10T09:46:32.709Z,1010.98
2023-01-10T09:47:28.063Z,1011.06
2023-01-10T09:48:27.610Z,1011.12
2023-01-10T09:49:27.604Z,1011.09
2023-01-10T09:50:27.620Z,1011.05
2023-01-10T09:51:27.576Z,1011.16
2023-01-10T09:52:27.568Z,1011.13
2023-01-10T09:53:27.556Z,1011.14
2023-01-10T09:54:27.540Z,1011.20
2023-01-10T09:55:27.716Z,1011.15
2023-01-10T09:56:27.514Z,1011.21
2023-01-10T09:57:32.572Z,1011.18
2023-01-10T09:58:27.503Z,1011.14
2023-01-10T09:59:27.484Z,1011.15
2023-01-10T10:00:27.477Z,1011.16
2023-01-10T10:01:27.567Z,1011.23
2023-01-10T10:02:27.487Z,1011.19
2023-01-10T10:03:27.540Z,1011.13
2023-01-10T10:04:27.518Z,1011.18
2023-01-10T10:05:27.418Z,1011.12
2023-01-10T10:06:27.405Z,1011.18
2023-01-10T10:07:27.567Z,1011.11
2023-01-10T10:08:32.426Z,1011.16
2023-01-10T10:09:27.371Z,1011.13
2023-01-10T10:10:27.382Z,1011.14
2023-01-10T10:11:27.377Z,1011.12
2023-01-10T10:12:27.616Z,1011.07
2023-01-10T10:13:27.956Z,1011.13
2023-01-10T10:14:27.321Z,1011.05
2023-01-10T10:15:27.312Z,1011.07
2023-01-10T10:16:27.407Z,1011.10
2023-01-10T10:17:27.293Z,1011.14
2023-01-10T10:18:27.440Z,1011.17
2023-01-10T10:19:32.323Z,1011.13
2023-01-10T10:20:27.256Z,1011.11
2023-01-10T10:21:27.234Z,1011.07
2023-01-10T10:22:27.229Z,1011.08
2023-01-10T10:23:27.220Z,1011.07
2023-01-10T10:24:27.209Z,1011.12
2023-01-10T10:25:27.196Z,1011.15
2023-01-10T10:26:27.177Z,1011.11
2023-01-10T10:27:27.167Z,1011.10
2023-01-10T10:28:27.163Z,1011.09
2023-01-10T10:29:27.186Z,1011.10
2023-01-10T10:30:32.179Z,1011.06
2023-01-10T10:31:27.190Z,1011.08
2023-01-10T10:32:27.111Z,1011.00
2023-01-10T10:33:27.131Z,1011.08
2023-01-10T10:34:27.116Z,1011.00
2023-01-10T10:35:27.096Z,1011.04
2023-01-10T10:36:27.088Z,1011.05
2023-01-10T10:37:27.054Z,1011.08
2023-01-10T10:38:27.041Z,1011.11
2023-01-10T10:39:27.038Z,1011.06
2023-01-10T10:40:27.029Z,1011.00
2023-01-10T10:41:32.041Z,1011.10
2023-01-10T10:42:27.104Z,1011.04
2023-01-10T10:43:27.002Z,1011.03
2023-01-10T10:44:26.989Z,1011.01
2023-01-10T10:45:27.162Z,1011.06
2023-01-10T10:46:26.997Z,1011.02
2023-01-10T10:47:26.939Z,1011.05
2023-01-10T10:48:26.933Z,1011.08
2023-01-10T10:49:26.914Z,1011.07
2023-01-10T10:50:26.928Z,1011.06
2023-01-10T10:51:26.905Z,1011.06
2023-01-10T10:52:31.919Z,1011.07
2023-01-10T10:53:26.868Z,1011.11
2023-01-10T10:54:26.876Z,1011.00
2023-01-10T10:55:26.851Z,1011.10
2023-01-10T10:56:26.845Z,1011.10
2023-01-10T10:57:26.830Z,1011.05
2023-01-10T10:58:26.832Z,1011.05
2023-01-10T10:59:26.808Z,1011.07
2023-01-10T11:00:26.826Z,1011.07
2023-01-10T11:01:27.113Z,1011.10
2023-01-10T11:02:26.794Z,1011.09
2023-01-10T11:03:31.781Z,1011.10
2023-01-10T11:04:26.781Z,1011.10
2023-01-10T11:05:26.735Z,1011.07
2023-01-10T11:06:26.755Z,1011.07
2023-01-10T11:07:26.752Z,1011.02
2023-01-10T11:08:26.722Z,1010.98
2023-01-10T11:09:26.692Z,1010.92
2023-01-10T11:10:26.707Z,1010.97
2023-01-10T11:11:26.686Z,1010.96
2023-01-10T11:12:26.658Z,1010.89
2023-01-10T11:13:26.669Z,1010.96
2023-01-10T11:14:31.665Z,1010.92
2023-01-10T11:15:26.635Z,1010.93
2023-01-10T11:16:26.719Z,1010.91
2023-01-10T11:17:27.831Z,1010.92
2023-01-10T11:18:26.636Z,1010.93
2023-01-10T11:19:26.584Z,1010.90
2023-01-10T11:20:26.583Z,1010.90
2023-01-10T11:21:26.820Z,1010.82
2023-01-10T11:22:26.603Z,1010.85
2023-01-10T11:23:26.549Z,1010.87
2023-01-10T11:24:26.536Z,1010.83
2023-01-10T11:25:31.562Z,1010.83
2023-01-10T11:26:26.507Z,1010.80
2023-01-10T11:27:26.530Z,1010.84
2023-01-10T11:28:26.508Z,1010.83
2023-01-10T11:29:26.507Z,1010.85
2023-01-10T11:30:26.468Z,1010.89
2023-01-10T11:31:26.517Z,1010.85
2023-01-10T11:32:26.450Z,1010.85
2023-01-10T11:33:26.423Z,1010.85
2023-01-10T11:34:26.410Z,1010.81
2023-01-10T11:35:26.400Z,1010.84
2023-01-10T11:36:31.454Z,1010.86
2023-01-10T11:37:26.391Z,1010.82
2023-01-10T11:38:26.384Z,1010.88
2023-01-10T11:39:26.368Z,1010.90
2023-01-10T11:40:26.411Z,1010.94
2023-01-10T11:41:26.360Z,1010.97
2023-01-10T11:42:26.438Z,1011.03
2023-01-10T11:43:26.324Z,1011.05
2023-01-10T11:44:26.326Z,1011.05
2023-01-10T11:45:26.301Z,1011.03
2023-01-10T11:46:26.318Z,1011.05
2023-01-10T11:47:32.326Z,1010.98
2023-01-10T11:48:53.229Z,1011.01
2023-01-10T11:49:27.299Z,1011.04
2023-01-10T11:50:26.245Z,1010.99
2023-01-10T11:51:26.225Z,1010.93
2023-01-10T11:52:26.296Z,1011.04
2023-01-10T11:53:26.214Z,1010.93
2023-01-10T11:54:26.207Z,1010.84
2023-01-10T11:55:26.168Z,1010.91
2023-01-10T11:56:26.164Z,1010.87
2023-01-10T11:57:26.165Z,1010.94
2023-01-10T11:58:31.203Z,1010.94
2023-01-10T11:59:26.138Z,1010.89
2023-01-10T12:00:26.118Z,1010.94
2023-01-10T12:01:26.222Z,1010.87
2023-01-10T12:02:26.275Z,1010.90
2023-01-10T12:03:26.104Z,1010.92
2023-01-10T12:04:26.094Z,1010.89
2023-01-10T12:05:26.082Z,1010.85
2023-01-10T12:06:26.069Z,1010.86
2023-01-10T12:07:26.063Z,1010.88
2023-01-10T12:08:26.029Z,1010.88
2023-01-10T12:09:31.082Z,1010.85
2023-01-10T12:10:26.012Z,1010.85
2023-01-10T12:11:25.991Z,1010.86
2023-01-10T12:12:25.992Z,1010.72
2023-01-10T12:13:25.985Z,1010.75
2023-01-10T12:14:27.003Z,1010.80
2023-01-10T12:15:25.981Z,1010.77
2023-01-10T12:16:26.010Z,1010.75
2023-01-10T12:17:25.953Z,1010.79
2023-01-10T12:18:25.916Z,1010.69
2023-01-10T12:19:25.921Z,1010.76
2023-01-10T12:20:30.927Z,1010.73
2023-01-10T12:21:25.888Z,1010.69
2023-01-10T12:22:25.890Z,1010.69
2023-01-10T12:23:25.915Z,1010.62
2023-01-10T12:24:25.865Z,1010.64
2023-01-10T12:25:25.921Z,1010.66
2023-01-10T12:26:25.878Z,1010.71
2023-01-10T12:27:25.880Z,1010.57
2023-01-10T12:28:25.813Z,1010.55
2023-01-10T12:29:25.837Z,1010.61
2023-01-10T12:30:25.830Z,1010.67
2023-01-10T12:31:31.788Z,1010.68
2023-01-10T12:32:25.769Z,1010.66
2023-01-10T12:33:25.753Z,1010.56
2023-01-10T12:34:25.747Z,1010.73
2023-01-10T12:35:25.728Z,1010.55
2023-01-10T12:36:26.520Z,1010.69
2023-01-10T12:37:25.717Z,1010.60
2023-01-10T12:38:25.688Z,1010.63
2023-01-10T12:39:25.699Z,1010.62
2023-01-10T12:40:25.667Z,1010.53
2023-01-10T12:41:25.697Z,1010.63
2023-01-10T12:42:30.739Z,1010.57
2023-01-10T12:43:25.706Z,1010.65
2023-01-10T12:44:25.678Z,1010.62
2023-01-10T12:45:26.609Z,1010.60
2023-01-10T12:46:43.812Z,1010.65
2023-01-10T12:47:26.598Z,1010.63
2023-01-10T12:48:25.597Z,1010.70
2023-01-10T12:49:25.565Z,1010.66
2023-01-10T12:50:25.599Z,1010.65
2023-01-10T12:51:25.543Z,1010.65
2023-01-10T12:52:25.528Z,1010.67
2023-01-10T12:53:30.557Z,1010.65
2023-01-10T12:54:25.524Z,1010.61
2023-01-10T12:55:25.548Z,1010.61
2023-01-10T12:56:25.492Z,1010.67
2023-01-10T12:57:25.502Z,1010.64
2023-01-10T12:58:25.480Z,1010.59
2023-01-10T12:59:36.655Z,1010.56
2023-01-10T13:00:26.449Z,1010.61
2023-01-10T13:01:25.519Z,1010.60
2023-01-10T13:02:25.575Z,1010.57
2023-01-10T13:03:25.427Z,1010.65
2023-01-10T13:04:30.420Z,1010.59
2023-01-10T13:05:25.413Z,1010.60
2023-01-10T13:06:25.369Z,1010.59
2023-01-10T13:07:25.371Z,1010.60
2023-01-10T13:08:25.359Z,1010.58
2023-01-10T13:09:25.340Z,1010.54
2023-01-10T13:10:25.335Z,1010.57
2023-01-10T13:11:25.325Z,1010.55
2023-01-10T13:12:25.322Z,1010.61
2023-01-10T13:13:25.312Z,1010.56
2023-01-10T13:14:25.293Z,1010.58
2023-01-10T13:15:30.395Z,1010.60
2023-01-10T13:16:25.259Z,1010.56
2023-01-10T13:17:25.252Z,1010.52
2023-01-10T13:18:25.233Z,1010.47
2023-01-10T13:19:25.219Z,1010.54
2023-01-10T13:20:25.220Z,1010.56
2023-01-10T13:21:25.215Z,1010.57
2023-01-10T13:22:25.194Z,1010.56
2023-01-10T13:23:25.176Z,1010.64
2023-01-10T13:24:25.168Z,1010.66
2023-01-10T13:25:25.226Z,1010.62
2023-01-10T13:26:30.185Z,1010.49
2023-01-10T13:27:25.142Z,1010.57
2023-01-10T13:28:25.120Z,1010.53
2023-01-10T13:29:25.132Z,1010.60
2023-01-10T13:30:25.124Z,1010.60
2023-01-10T13:31:25.148Z,1010.57
2023-01-10T13:32:25.100Z,1010.54
2023-01-10T13:33:25.112Z,1010.61
2023-01-10T13:34:25.067Z,1010.56
2023-01-10T13:35:25.056Z,1010.49
2023-01-10T13:36:25.025Z,1010.57
2023-01-10T13:37:30.043Z,1010.56
2023-01-10T13:38:25.016Z,1010.50
2023-01-10T13:39:24.994Z,1010.55
2023-01-10T13:40:24.997Z,1010.47
2023-01-10T13:41:24.985Z,1010.53
2023-01-10T13:42:25.002Z,1010.56
2023-01-10T13:43:25.977Z,1010.57
2023-01-10T13:44:24.956Z,1010.55
2023-01-10T13:45:24.951Z,1010.55
2023-01-10T13:46:25.001Z,1010.46
2023-01-10T13:47:24.903Z,1010.51
2023-01-10T13:48:29.925Z,1010.56
2023-01-10T13:49:24.885Z,1010.56
2023-01-10T13:50:24.869Z,1010.54
2023-01-10T13:51:24.884Z,1010.51
2023-01-10T13:52:24.894Z,1010.54
2023-01-10T13:53:24.871Z,1010.56
2023-01-10T13:54:24.844Z,1010.52
2023-01-10T13:55:24.990Z,1010.55
2023-01-10T13:56:24.829Z,1010.51
2023-01-10T13:57:24.798Z,1010.56
2023-01-10T13:58:24.803Z,1010.45
2023-01-10T13:59:29.799Z,1010.54
2023-01-10T14:00:24.762Z,1010.53
2023-01-10T14:01:24.946Z,1010.48
2023-01-10T14:02:24.800Z,1010.51
2023-01-10T14:03:24.735Z,1010.46
2023-01-10T14:04:24.755Z,1010.46
2023-01-10T14:05:24.729Z,1010.47
2023-01-10T14:06:24.705Z,1010.52
2023-01-10T14:07:24.683Z,1010.48
2023-01-10T14:08:24.674Z,1010.47
2023-01-10T14:09:24.667Z,1010.49
2023-01-10T14:10:29.692Z,1010.46
2023-01-10T14:11:24.663Z,1010.40
2023-01-10T14:12:25.617Z,1010.31
2023-01-10T14:13:24.948Z,1010.37
2023-01-10T14:14:24.630Z,1010.40
2023-01-10T14:15:24.584Z,1010.34
2023-01-10T14:16:24.667Z,1010.29
2023-01-10T14:17:24.669Z,1010.30
2023-01-10T14:18:24.578Z,1010.22
2023-01-10T14:19:25.978Z,1010.26
2023-01-10T14:20:24.533Z,1010.18
2023-01-10T14:21:29.588Z,1010.18
2023-01-10T14:22:24.526Z,1010.13
2023-01-10T14:23:24.619Z,1010.06
2023-01-10T14:24:24.537Z,1010.07
2023-01-10T14:25:24.475Z,1010.12
2023-01-10T14:26:24.482Z,1010.01
2023-01-10T14:27:24.471Z,1010.02
2023-01-10T14:28:24.458Z,1009.97
2023-01-10T14:29:24.426Z,1009.97
2023-01-10T14:30:24.418Z,1009.94
2023-01-10T14:31:24.479Z,1009.98
2023-01-10T14:32:29.467Z,1009.98
2023-01-10T14:33:24.399Z,1009.97
2023-01-10T14:34:24.394Z,1010.00
2023-01-10T14:35:24.404Z,1009.86
2023-01-10T14:36:24.347Z,1009.90
2023-01-10T14:37:24.420Z,1009.91
2023-01-10T14:38:24.328Z,1009.87
2023-01-10T14:39:24.319Z,1009.88
2023-01-10T14:40:24.302Z,1009.91
2023-01-10T14:41:24.295Z,1009.89
2023-01-10T14:42:25.057Z,1009.91
2023-01-10T14:43:29.293Z,1009.86
2023-01-10T14:44:24.255Z,1009.94
2023-01-10T14:45:24.250Z,1009.90
2023-01-10T14:46:24.267Z,1009.81
2023-01-10T14:47:24.254Z,1009.91
2023-01-10T14:48:24.230Z,1009.90
2023-01-10T14:49:24.233Z,1009.91
2023-01-10T14:50:24.192Z,1009.90
2023-01-10T14:51:24.191Z,1009.85
2023-01-10T14:52:24.199Z,1009.86
2023-01-10T14:53:24.161Z,1009.81
2023-01-10T14:54:29.181Z,1009.88
2023-01-10T14:55:24.142Z,1009.81
2023-01-10T14:56:24.177Z,1009.79
2023-01-10T14:57:24.144Z,1009.77
2023-01-10T14:58:24.097Z,1009.81
2023-01-10T14:59:24.126Z,1009.80
2023-01-10T15:00:24.076Z,1009.82
2023-01-10T15:01:24.210Z,1009.75
2023-01-10T15:02:24.078Z,1009.80
2023-01-10T15:03:24.048Z,1009.78
2023-01-10T15:04:24.126Z,1009.76
2023-01-10T15:05:29.050Z,1009.68
2023-01-10T15:06:25.754Z,1009.68
2023-01-10T15:07:24.030Z,1009.65
2023-01-10T15:08:23.996Z,1009.70
2023-01-10T15:09:23.996Z,1009.67
2023-01-10T15:10:24.972Z,1009.63
2023-01-10T15:11:23.960Z,1009.58
2023-01-10T15:12:23.956Z,1009.62
2023-01-10T15:13:23.932Z,1009.62
2023-01-10T15:14:23.921Z,1009.56
2023-01-10T15:15:23.905Z,1009.53
2023-01-10T15:16:28.919Z,1009.54
2023-01-10T15:17:23.898Z,1009.60
2023-01-10T15:18:23.907Z,1009.60
2023-01-10T15:19:23.870Z,1009.60
2023-01-10T15:20:23.871Z,1009.60
2023-01-10T15:21:23.846Z,1009.62
2023-01-10T15:22:26.120Z,1009.60
2023-01-10T15:23:23.892Z,1009.62
2023-01-10T15:24:23.819Z,1009.60
2023-01-10T15:25:23.820Z,1009.60
2023-01-10T15:26:23.789Z,1009.61
2023-01-10T15:27:28.794Z,1009.62
2023-01-10T15:28:23.780Z,1009.57
2023-01-10T15:29:23.753Z,1009.59
2023-01-10T15:30:23.741Z,1009.62
2023-01-10T15:31:23.779Z,1009.60
2023-01-10T15:32:23.713Z,1009.61
2023-01-10T15:33:23.760Z,1009.60
2023-01-10T15:34:23.712Z,1009.53
2023-01-10T15:35:27.434Z,1009.59
2023-01-10T15:36:26.314Z,1009.58
2023-01-10T15:37:23.666Z,1009.57
2023-01-10T15:38:28.683Z,1009.60
2023-01-10T15:39:23.634Z,1009.53
2023-01-10T15:40:23.679Z,1009.49
2023-01-10T15:41:23.614Z,1009.50
2023-01-10T15:42:23.610Z,1009.61
2023-01-10T15:43:23.805Z,1009.51
2023-01-10T15:44:23.599Z,1009.50
2023-01-10T15:45:23.598Z,1009.46
2023-01-10T15:46:23.700Z,1009.48
2023-01-10T15:47:23.548Z,1009.46
2023-01-10T15:48:23.548Z,1009.41
2023-01-10T15:49:28.563Z,1009.33
2023-01-10T15:50:23.533Z,1009.34
2023-01-10T15:51:23.533Z,1009.29
2023-01-10T15:52:23.512Z,1009.21
2023-01-10T15:53:23.478Z,1009.22
2023-01-10T15:54:23.479Z,1009.27
2023-01-10T15:55:25.010Z,1009.18
2023-01-10T15:56:23.460Z,1009.22
2023-01-10T15:57:23.440Z,1009.15
2023-01-10T15:58:23.427Z,1009.10
2023-01-10T15:59:24.066Z,1009.13
2023-01-10T16:00:28.444Z,1009.12
2023-01-10T16:01:23.505Z,1009.12
2023-01-10T16:02:23.660Z,1009.02
2023-01-10T16:03:23.530Z,1009.09
2023-01-10T16:04:23.390Z,1009.12
2023-01-10T16:05:23.339Z,1009.10
2023-01-10T16:06:23.344Z,1009.05
2023-01-10T16:07:23.322Z,1009.04
2023-01-10T16:08:23.327Z,1009.07
2023-01-10T16:09:23.318Z,1009.14
2023-01-10T16:10:23.310Z,1009.08
2023-01-10T16:11:28.296Z,1009.06
2023-01-10T16:12:23.274Z,1009.08
2023-01-10T16:13:23.251Z,1009.11
2023-01-10T16:14:23.262Z,1009.04
2023-01-10T16:15:23.230Z,1009.13
2023-01-10T16:16:23.314Z,1009.04
2023-01-10T16:17:23.210Z,1009.06
2023-01-10T16:18:23.209Z,1009.03
2023-01-10T16:19:23.187Z,1009.03
2023-01-10T16:20:23.187Z,1009.01
2023-01-10T16:21:23.194Z,1008.97
2023-01-10T16:22:28.185Z,1008.98
2023-01-10T16:23:23.139Z,1008.91
2023-01-10T16:24:23.155Z,1008.98
2023-01-10T16:25:23.165Z,1008.90
2023-01-10T16:26:23.105Z,1008.95
2023-01-10T16:27:23.095Z,1009.05
2023-01-10T16:28:23.091Z,1009.00
2023-01-10T16:29:23.100Z,1009.00
2023-01-10T16:30:23.083Z,1009.03
2023-01-10T16:31:23.096Z,1008.91
2023-01-10T16:32:23.055Z,1008.96
2023-01-10T16:33:28.051Z,1008.91
2023-01-10T16:34:23.026Z,1008.89
2023-01-10T16:35:23.021Z,1008.83
2023-01-10T16:36:22.994Z,1008.82
2023-01-10T16:37:22.988Z,1008.80
2023-01-10T16:38:22.982Z,1008.82
2023-01-10T16:39:22.956Z,1008.89
2023-01-10T16:40:22.984Z,1008.90
2023-01-10T16:41:22.930Z,1008.93
2023-01-10T16:42:22.930Z,1008.95
2023-01-10T16:43:22.917Z,1008.97
2023-01-10T16:44:27.924Z,1008.95
2023-01-10T16:45:22.934Z,1008.89
2023-01-10T16:46:22.898Z,1008.85
2023-01-10T16:47:22.871Z,1008.82
2023-01-10T16:48:22.856Z,1008.85
2023-01-10T16:49:22.845Z,1008.86
2023-01-10T16:50:22.850Z,1008.86
2023-01-10T16:51:22.847Z,1008.85
2023-01-10T16:52:22.829Z,1008.80
2023-01-10T16:53:22.799Z,1008.89
2023-01-10T16:54:22.810Z,1008.86
2023-01-10T16:55:27.828Z,1008.83
2023-01-10T16:56:22.763Z,1008.84
2023-01-10T16:57:22.759Z,1008.81
2023-01-10T16:58:22.741Z,1008.78
2023-01-10T16:59:22.743Z,1008.77
2023-01-10T17:00:22.739Z,1008.68
2023-01-10T17:01:22.909Z,1008.65
2023-01-10T17:02:22.700Z,1008.67
2023-01-10T17:03:22.684Z,1008.71
2023-01-10T17:04:22.744Z,1008.70
2023-01-10T17:05:22.662Z,1008.64